Time;durP1;ratioP1;P1;durP2;ratioP2;P2;SDS_P1;SDS_P2;PMS_P1;PMS_P2;Temp;Humidity;BMP_temperature;BMP_pressure;BME280_temperature;BME280_humidity;BME280_pressure;Samples;Min_cycle;Max_cycle;Signal;HPM_P1;HPM_P2
2022/06/20 00:00:20;;;;;;;7.78;1.73;;;;;;;;;;6167563;23;20026;-81
2022/06/20 00:02:49;;;;;;;11.93;2.13;;;;;;;;;;6166174;23;20018;-82
2022/06/20 00:05:18;;;;;;;9.82;1.63;;;;;;;;;;6165370;23;20037;-81
2022/06/20 00:07:46;;;;;;;10.95;1.92;;;;;;;;;;6166868;23;20398;-81
2022/06/20 00:10:14;;;;;;;10.02;1.90;;;;;;;;;;6176290;23;20014;-81
2022/06/20 00:12:42;;;;;;;4.82;1.40;;;;;;;;;;6171075;23;20117;-82
2022/06/20 00:15:13;;;;;;;7.70;1.92;;;;;;;;;;6175905;23;20074;-81
2022/06/20 00:17:40;;;;;;;8.90;1.90;;;;;;;;;;6175465;23;20030;-81
2022/06/20 00:20:10;;;;;;;7.55;1.67;;;;;;;;;;6174214;23;20030;-81
2022/06/20 00:22:37;;;;;;;8.98;2.20;;;;;;;;;;6174352;23;20764;-82
2022/06/20 00:25:04;;;;;;;10.55;2.10;;;;;;;;;;6177055;23;20105;-81
2022/06/20 00:27:31;;;;;;;7.20;1.92;;;;;;;;;;6177529;23;20038;-81
2022/06/20 00:30:02;;;;;;;9.18;2.20;;;;;;;;;;6176130;23;20033;-80
2022/06/20 00:32:29;;;;;;;8.38;1.70;;;;;;;;;;6177261;23;20037;-81
2022/06/20 00:34:56;;;;;;;9.05;1.90;;;;;;;;;;6180415;23;20017;-82
2022/06/20 00:37:23;;;;;;;9.73;2.08;;;;;;;;;;6180328;23;20038;-82
2022/06/20 00:39:51;;;;;;;8.20;1.95;;;;;;;;;;6178168;23;20018;-81
2022/06/20 00:42:18;;;;;;;8.57;2.25;;;;;;;;;;6145484;23;20093;-80
2022/06/20 00:44:47;;;;;;;5.53;1.50;;;;;;;;;;6171578;23;20097;-81
2022/06/20 00:47:23;;;;;;;12.23;2.10;;;;;;;;;;6169863;23;20011;-81
2022/06/20 00:49:50;;;;;;;7.70;2.10;;;;;;;;;;6170727;23;20026;-82
2022/06/20 00:52:18;;;;;;;8.45;2.20;;;;;;;;;;6178531;23;20064;-83
2022/06/20 00:54:49;;;;;;;12.23;2.13;;;;;;;;;;6178725;23;20021;-81
2022/06/20 00:57:22;;;;;;;6.55;1.55;;;;;;;;;;6171647;23;20042;-80
2022/06/20 00:59:52;;;;;;;10.02;1.80;;;;;;;;;;6178374;23;20033;-81
2022/06/20 01:02:26;;;;;;;8.40;2.17;;;;;;;;;;6167462;23;20114;-81
2022/06/20 01:04:59;;;;;;;12.68;2.30;;;;;;;;;;6172076;23;20383;-81
2022/06/20 01:07:26;;;;;;;;;;;;;;;;;;6170316;23;20471;-81
2022/06/20 01:09:55;;;;;;;8.63;1.92;;;;;;;;;;6169410;23;44775;-80
2022/06/20 01:12:24;;;;;;;11.15;1.80;;;;;;;;;;6171548;23;20034;-81
2022/06/20 01:14:51;;;;;;;9.82;1.92;;;;;;;;;;6169108;23;20024;-80
2022/06/20 01:17:27;;;;;;;7.03;1.60;;;;;;;;;;6155608;23;20069;-81
2022/06/20 01:20:05;;;;;;;7.80;1.80;;;;;;;;;;6167978;23;20060;-82
2022/06/20 01:22:46;;;;;;;10.48;1.90;;;;;;;;;;6142224;23;20029;-81
2022/06/20 01:25:23;;;;;;;7.30;1.80;;;;;;;;;;6142893;23;20109;-81
2022/06/20 01:27:51;;;;;;;10.75;2.20;;;;;;;;;;6168961;23;20020;-81
2022/06/20 01:30:19;;;;;;;12.82;2.05;;;;;;;;;;6168020;23;20022;-81
2022/06/20 01:32:47;;;;;;;8.23;1.90;;;;;;;;;;6168420;23;20105;-82
2022/06/20 01:37:23;;;;;;;8.55;2.10;;;;;;;;;;6166632;23;20025;-81
2022/06/20 01:38:03;;;;;;;6.05;1.67;;;;;;;;;;6168832;23;20018;-81
2022/06/20 01:40:31;;;;;;;9.88;1.60;;;;;;;;;;6169880;23;20130;-81
2022/06/20 01:43:03;;;;;;;10.85;1.75;;;;;;;;;;6170368;23;20030;-81
2022/06/20 01:48:17;;;;;;;6.75;2.05;;;;;;;;;;6169551;23;20037;-81
2022/06/20 01:50:45;;;;;;;6.97;1.70;;;;;;;;;;6170520;23;20025;-81
2022/06/20 01:53:14;;;;;;;12.93;2.05;;;;;;;;;;6168292;23;20025;-81
2022/06/20 01:55:44;;;;;;;12.48;2.17;;;;;;;;;;6168094;23;20024;-81
2022/06/20 01:58:15;;;;;;;9.43;2.28;;;;;;;;;;6169907;23;20842;-81
2022/06/20 02:00:42;;;;;;;7.22;1.98;;;;;;;;;;6169369;23;20057;-83
2022/06/20 02:03:13;;;;;;;7.53;1.58;;;;;;;;;;6169287;23;20017;-81
2022/06/20 02:05:42;;;;;;;10.57;1.67;;;;;;;;;;6169016;23;20064;-80
2022/06/20 02:08:10;;;;;;;10.00;2.05;;;;;;;;;;6168015;23;20120;-80
2022/06/20 02:10:47;;;;;;;7.32;1.83;;;;;;;;;;6167561;23;20014;-80
2022/06/20 02:13:15;;;;;;;9.13;1.58;;;;;;;;;;6169732;23;20029;-80
2022/06/20 02:15:43;;;;;;;8.27;1.90;;;;;;;;;;6169109;23;20022;-80
2022/06/20 02:18:11;;;;;;;10.70;2.03;;;;;;;;;;6169205;23;20062;-80
2022/06/20 02:20:46;;;;;;;9.35;2.22;;;;;;;;;;6168222;23;20049;-79
2022/06/20 02:23:18;;;;;;;15.13;1.83;;;;;;;;;;6167285;23;20045;-80
2022/06/20 02:25:46;;;;;;;11.25;1.85;;;;;;;;;;6167203;23;20103;-80
2022/06/20 02:28:16;;;;;;;10.10;2.30;;;;;;;;;;6167299;23;20066;-80
2022/06/20 02:30:44;;;;;;;10.00;2.03;;;;;;;;;;6169400;23;20117;-79
2022/06/20 02:33:14;;;;;;;13.88;2.20;;;;;;;;;;6167328;23;20067;-81
2022/06/20 02:35:42;;;;;;;10.13;2.35;;;;;;;;;;6167329;23;20109;-79
2022/06/20 02:38:09;;;;;;;7.13;2.03;;;;;;;;;;6145676;23;20831;-80
2022/06/20 02:40:41;;;;;;;7.53;1.90;;;;;;;;;;6170751;23;20021;-80
2022/06/20 02:43:14;;;;;;;9.48;1.98;;;;;;;;;;6172462;23;20085;-81
2022/06/20 02:45:41;;;;;;;8.40;2.65;;;;;;;;;;6170978;23;20030;-79
2022/06/20 02:48:10;;;;;;;9.07;1.95;;;;;;;;;;6170470;23;20101;-80
2022/06/20 02:50:39;;;;;;;11.38;2.22;;;;;;;;;;6171877;23;20070;-82
2022/06/20 02:53:10;;;;;;;11.95;2.50;;;;;;;;;;6146181;23;20026;-79
2022/06/20 02:55:38;;;;;;;10.38;2.10;;;;;;;;;;6174547;23;20754;-81
2022/06/20 02:58:15;;;;;;;12.25;2.85;;;;;;;;;;6177159;23;20081;-80
2022/06/20 03:00:45;;;;;;;12.80;2.33;;;;;;;;;;6175186;23;20018;-80
2022/06/20 03:03:24;;;;;;;9.90;1.92;;;;;;;;;;6171540;23;20029;-81
2022/06/20 03:05:51;;;;;;;16.58;2.35;;;;;;;;;;6170871;23;20018;-80
2022/06/20 03:08:18;;;;;;;11.20;2.80;;;;;;;;;;6169368;23;20018;-81
2022/06/20 03:10:47;;;;;;;11.15;2.55;;;;;;;;;;6170061;23;20025;-80
2022/06/20 03:13:14;;;;;;;7.28;2.30;;;;;;;;;;6170130;23;20096;-80
2022/06/20 03:15:45;;;;;;;9.43;2.45;;;;;;;;;;6170982;23;20110;-80
2022/06/20 03:18:14;;;;;;;8.98;2.45;;;;;;;;;;6172870;23;20678;-80
2022/06/20 03:20:41;;;;;;;11.80;2.60;;;;;;;;;;6172568;23;20101;-80
2022/06/20 03:23:16;;;;;;;9.20;2.40;;;;;;;;;;6173318;23;20020;-80
2022/06/20 03:25:44;;;;;;;8.27;2.03;;;;;;;;;;6175283;23;20030;-81
2022/06/20 03:28:13;;;;;;;11.27;2.67;;;;;;;;;;6148475;23;20743;-80
2022/06/20 03:31:01;;;;;;;7.70;2.70;;;;;;;;;;6152446;23;20078;-80
2022/06/20 03:33:29;;;;;;;10.70;2.20;;;;;;;;;;6174299;23;20824;-79
2022/06/20 03:36:15;;;;;;;14.73;2.95;;;;;;;;;;6148052;23;20014;-81
2022/06/20 03:38:43;;;;;;;9.30;2.40;;;;;;;;;;6173582;23;20067;-81
2022/06/20 03:41:12;;;;;;;12.13;2.53;;;;;;;;;;6173845;23;20058;-80
2022/06/20 03:43:40;;;;;;;9.50;2.38;;;;;;;;;;6172792;23;20028;-80
2022/06/20 03:46:12;;;;;;;11.10;2.33;;;;;;;;;;6147101;23;20033;-80
2022/06/20 03:48:49;;;;;;;10.70;2.45;;;;;;;;;;6173090;23;20030;-82
2022/06/20 03:51:20;;;;;;;9.30;2.20;;;;;;;;;;6169198;23;20022;-79
2022/06/20 03:53:50;;;;;;;8.52;2.05;;;;;;;;;;6168489;23;20024;-81
2022/06/20 03:56:29;;;;;;;7.53;2.42;;;;;;;;;;6169066;23;20026;-81
2022/06/20 03:58:59;;;;;;;12.32;2.50;;;;;;;;;;6169188;23;20498;-82
2022/06/20 04:01:29;;;;;;;13.27;2.83;;;;;;;;;;6169369;23;20097;-82
2022/06/20 04:03:56;;;;;;;9.73;2.08;;;;;;;;;;6170209;23;20026;-82
2022/06/20 04:06:35;;;;;;;9.00;2.20;;;;;;;;;;6144037;23;20025;-82
2022/06/20 04:12:10;;;;;;;10.95;3.03;;;;;;;;;;6169499;23;20078;-80
2022/06/20 04:14:46;;;;;;;10.30;2.40;;;;;;;;;;6169089;23;20046;-82
2022/06/20 04:20:26;;;;;;;7.55;2.08;;;;;;;;;;6170072;23;20053;-81
2022/06/20 04:22:54;;;;;;;11.32;2.72;;;;;;;;;;6169785;23;20060;-81
2022/06/20 04:25:28;;;;;;;9.57;2.00;;;;;;;;;;6168080;23;20668;-80
2022/06/20 04:27:58;;;;;;;5.55;2.28;;;;;;;;;;6169040;23;20034;-80
2022/06/20 04:30:32;;;;;;;11.43;2.15;;;;;;;;;;6168134;23;20034;-80
2022/06/20 04:33:05;;;;;;;12.10;2.22;;;;;;;;;;6169750;23;20495;-80
2022/06/20 04:35:43;;;;;;;7.47;2.35;;;;;;;;;;6168769;23;20038;-80
2022/06/20 04:38:16;;;;;;;7.05;2.00;;;;;;;;;;6168132;23;20093;-80
2022/06/20 04:40:56;;;;;;;11.18;2.50;;;;;;;;;;6167719;23;20076;-80
2022/06/20 04:43:45;;;;;;;6.50;1.88;;;;;;;;;;6168084;23;20021;-80
2022/06/20 04:46:18;;;;;;;9.32;2.42;;;;;;;;;;6167464;23;20137;-79
2022/06/20 04:48:47;;;;;;;4.93;1.80;;;;;;;;;;6168752;23;20159;-82
2022/06/20 04:51:17;;;;;;;4.72;1.92;;;;;;;;;;6168216;23;20032;-82
2022/06/20 04:53:45;;;;;;;12.20;2.17;;;;;;;;;;6167391;23;20018;-81
2022/06/20 04:56:14;;;;;;;8.35;2.50;;;;;;;;;;6167878;23;20036;-82
2022/06/20 04:58:45;;;;;;;8.23;2.00;;;;;;;;;;6167915;23;20029;-81
2022/06/20 05:01:12;;;;;;;13.40;1.98;;;;;;;;;;6171235;23;20129;-81
2022/06/20 05:03:41;;;;;;;10.73;2.10;;;;;;;;;;6169722;23;20105;-82
2022/06/20 05:06:12;;;;;;;5.45;1.65;;;;;;;;;;6167404;23;20061;-81
2022/06/20 05:08:41;;;;;;;10.50;2.30;;;;;;;;;;6166389;23;20105;-82
2022/06/20 05:11:10;;;;;;;5.93;2.10;;;;;;;;;;6166351;23;20106;-81
2022/06/20 05:13:45;;;;;;;9.38;1.90;;;;;;;;;;6165801;23;20061;-82
2022/06/20 05:16:17;;;;;;;11.43;2.47;;;;;;;;;;6165799;23;20029;-81
2022/06/20 05:18:47;;;;;;;9.40;2.67;;;;;;;;;;6166308;23;20017;-81
2022/06/20 05:21:19;;;;;;;15.18;2.10;;;;;;;;;;6166351;23;20455;-82
2022/06/20 05:23:48;;;;;;;8.23;2.33;;;;;;;;;;6166870;23;20101;-81
2022/06/20 05:26:23;;;;;;;6.38;2.00;;;;;;;;;;6166174;23;20042;-81
2022/06/20 05:28:55;;;;;;;8.35;2.10;;;;;;;;;;6166073;23;20069;-81
2022/06/20 05:31:30;;;;;;;9.60;2.15;;;;;;;;;;6167770;23;20013;-82
2022/06/20 05:34:19;;;;;;;9.50;2.05;;;;;;;;;;6165483;23;20054;-81
2022/06/20 05:36:51;;;;;;;7.85;1.92;;;;;;;;;;6167410;23;20158;-81
2022/06/20 05:39:22;;;;;;;8.07;2.53;;;;;;;;;;6166170;23;20022;-82
2022/06/20 05:41:50;;;;;;;8.75;2.30;;;;;;;;;;6166651;23;20226;-82
2022/06/20 05:44:19;;;;;;;10.88;2.25;;;;;;;;;;6165420;23;20809;-81
2022/06/20 05:46:50;;;;;;;9.77;2.22;;;;;;;;;;6165502;23;20022;-81
2022/06/20 05:49:25;;;;;;;12.27;2.42;;;;;;;;;;6166324;23;20123;-81
2022/06/20 05:51:53;;;;;;;13.15;2.60;;;;;;;;;;6164832;23;20117;-80
2022/06/20 05:54:22;;;;;;;9.10;2.13;;;;;;;;;;6162295;23;20835;-81
2022/06/20 05:56:56;;;;;;;13.70;2.70;;;;;;;;;;6160444;23;20032;-81
2022/06/20 05:59:23;;;;;;;;;;;;;;;;;;6161927;23;20014;-81
2022/06/20 06:01:50;;;;;;;9.27;2.50;;;;;;;;;;6160493;23;44811;-81
2022/06/20 06:04:24;;;;;;;10.70;2.63;;;;;;;;;;6161777;23;20882;-80
2022/06/20 06:06:56;;;;;;;10.88;2.58;;;;;;;;;;6160611;23;20100;-80
2022/06/20 06:09:48;;;;;;;11.40;2.20;;;;;;;;;;6159827;23;20877;-81
2022/06/20 06:12:28;;;;;;;10.30;2.20;;;;;;;;;;6160707;23;20026;-80
2022/06/20 06:14:58;;;;;;;11.52;2.38;;;;;;;;;;6134683;23;20034;-80
2022/06/20 06:17:31;;;;;;;10.32;2.63;;;;;;;;;;6160993;23;20419;-80
2022/06/20 06:20:09;;;;;;;;;;;;;;;;;;6160669;23;20858;-80
2022/06/20 06:22:38;;;;;;;10.18;2.22;;;;;;;;;;6159631;23;44628;-80
2022/06/20 06:25:07;;;;;;;14.40;2.97;;;;;;;;;;6160084;23;20827;-81
2022/06/20 06:27:35;;;;;;;11.25;3.20;;;;;;;;;;6133583;23;20379;-81
2022/06/20 06:30:02;;;;;;;8.55;2.45;;;;;;;;;;6159646;23;20026;-81
2022/06/20 06:32:34;;;;;;;9.48;2.38;;;;;;;;;;6162210;23;20458;-81
2022/06/20 06:35:13;;;;;;;8.75;2.45;;;;;;;;;;6162915;23;20093;-81
2022/06/20 06:38:00;;;;;;;13.60;2.70;;;;;;;;;;6163557;23;20025;-81
2022/06/20 06:40:38;;;;;;;9.48;2.50;;;;;;;;;;6162027;23;20413;-82
2022/06/20 06:43:23;;;;;;;9.80;2.55;;;;;;;;;;6163090;23;20050;-81
2022/06/20 06:45:53;;;;;;;10.35;2.63;;;;;;;;;;6162078;23;20823;-81
2022/06/20 06:48:20;;;;;;;11.50;2.80;;;;;;;;;;6160894;23;20030;-81
2022/06/20 06:50:58;;;;;;;10.90;2.65;;;;;;;;;;6161657;23;20738;-81
2022/06/20 06:53:32;;;;;;;11.93;2.83;;;;;;;;;;6138146;23;20040;-81
2022/06/20 06:56:31;;;;;;;10.85;2.55;;;;;;;;;;6162976;23;20030;-82
2022/06/20 06:59:19;;;;;;;9.48;2.50;;;;;;;;;;6078793;23;20018;-81
2022/06/20 07:01:48;;;;;;;9.23;2.40;;;;;;;;;;6167712;23;20912;-82
2022/06/20 07:04:19;;;;;;;14.88;2.85;;;;;;;;;;6169305;23;20828;-81
2022/06/20 07:06:49;;;;;;;11.57;2.45;;;;;;;;;;6167607;23;20033;-82
2022/06/20 07:09:19;;;;;;;12.55;2.30;;;;;;;;;;6169150;23;20043;-82
2022/06/20 07:11:48;;;;;;;7.68;2.63;;;;;;;;;;6169049;23;20074;-81
2022/06/20 07:14:19;;;;;;;10.32;2.25;;;;;;;;;;6170718;23;20049;-81
2022/06/20 07:16:58;;;;;;;8.25;2.40;;;;;;;;;;6172128;23;20022;-81
2022/06/20 07:19:26;;;;;;;9.40;2.65;;;;;;;;;;6175119;23;20121;-82
2022/06/20 07:21:56;;;;;;;8.27;2.20;;;;;;;;;;6177024;23;20048;-82
2022/06/20 07:24:26;;;;;;;15.13;2.85;;;;;;;;;;6178988;23;20010;-82
2022/06/20 07:27:00;;;;;;;9.60;2.50;;;;;;;;;;6177701;23;20105;-82
2022/06/20 07:29:36;;;;;;;11.63;2.47;;;;;;;;;;6178175;23;20021;-82
2022/06/20 07:32:12;;;;;;;11.48;2.40;;;;;;;;;;6171259;23;20044;-81
2022/06/20 07:34:49;;;;;;;12.52;2.88;;;;;;;;;;6170449;23;20022;-81
2022/06/20 07:37:19;;;;;;;9.35;2.30;;;;;;;;;;6169132;23;20082;-81
2022/06/20 07:39:51;;;;;;;9.25;2.28;;;;;;;;;;6168728;23;20038;-80
2022/06/20 07:42:28;;;;;;;9.57;2.70;;;;;;;;;;6168606;23;20026;-82
2022/06/20 07:45:01;;;;;;;10.20;2.88;;;;;;;;;;6169098;23;20022;-80
2022/06/20 07:47:34;;;;;;;13.10;2.55;;;;;;;;;;6168745;23;20053;-81
2022/06/20 07:50:09;;;;;;;10.52;2.65;;;;;;;;;;6139539;23;20025;-82
2022/06/20 07:52:41;;;;;;;11.73;2.83;;;;;;;;;;6139209;23;20443;-81
2022/06/20 07:55:10;;;;;;;12.00;2.65;;;;;;;;;;6138213;23;20060;-81
2022/06/20 07:57:40;;;;;;;9.82;2.65;;;;;;;;;;6139672;23;20023;-81
2022/06/20 08:00:14;;;;;;;8.75;2.58;;;;;;;;;;6141053;23;20843;-81
2022/06/20 08:02:44;;;;;;;9.93;2.47;;;;;;;;;;6141524;23;20023;-81
2022/06/20 08:05:13;;;;;;;8.98;2.45;;;;;;;;;;6141244;23;20027;-81
2022/06/20 08:07:43;;;;;;;12.77;2.78;;;;;;;;;;6140351;23;20034;-81
2022/06/20 08:10:19;;;;;;;8.50;2.53;;;;;;;;;;6140611;23;20037;-81
2022/06/20 08:13:03;;;;;;;9.40;2.38;;;;;;;;;;6140664;23;20026;-81
2022/06/20 08:15:33;;;;;;;9.52;2.40;;;;;;;;;;6133949;23;20758;-81
2022/06/20 08:18:01;;;;;;;8.65;2.25;;;;;;;;;;6140056;23;20021;-80
2022/06/20 08:20:31;;;;;;;12.55;2.85;;;;;;;;;;6137764;23;20082;-81
2022/06/20 08:23:01;;;;;;;6.15;2.13;;;;;;;;;;6116104;23;20387;-80
2022/06/20 08:25:32;;;;;;;6.95;2.33;;;;;;;;;;6141481;23;20870;-80
2022/06/20 08:28:03;;;;;;;9.23;2.60;;;;;;;;;;6136520;23;20029;-82
2022/06/20 08:30:38;;;;;;;11.52;2.63;;;;;;;;;;6138421;23;20015;-81
2022/06/20 08:33:10;;;;;;;7.93;2.00;;;;;;;;;;6140152;23;20097;-81
2022/06/20 08:35:50;;;;;;;8.15;2.42;;;;;;;;;;6165596;23;20025;-81
2022/06/20 08:38:30;;;;;;;7.72;2.35;;;;;;;;;;6175210;23;20021;-81
2022/06/20 08:41:07;;;;;;;8.60;2.15;;;;;;;;;;6146010;23;20018;-81
2022/06/20 08:43:46;;;;;;;10.38;2.35;;;;;;;;;;6170321;23;20057;-81
2022/06/20 08:46:25;;;;;;;7.97;2.10;;;;;;;;;;6174805;23;20014;-81
2022/06/20 08:49:16;;;;;;;11.60;2.30;;;;;;;;;;6174549;23;20029;-81
2022/06/20 08:52:08;;;;;;;9.77;2.90;;;;;;;;;;6171377;23;20109;-82
2022/06/20 08:54:38;;;;;;;7.25;2.28;;;;;;;;;;6171942;23;20030;-81
2022/06/20 08:57:13;;;;;;;9.38;2.40;;;;;;;;;;6172392;23;20105;-82
2022/06/20 08:59:49;;;;;;;8.55;2.20;;;;;;;;;;6171049;23;20025;-81
2022/06/20 09:02:23;;;;;;;9.82;2.47;;;;;;;;;;6171041;23;20018;-81
2022/06/20 09:04:53;;;;;;;10.23;2.42;;;;;;;;;;6170296;23;20821;-81
2022/06/20 09:07:46;;;;;;;12.18;2.50;;;;;;;;;;6170083;23;20089;-81
2022/06/20 09:10:19;;;;;;;7.18;1.92;;;;;;;;;;6171310;23;20783;-81
2022/06/20 09:12:55;;;;;;;8.13;1.90;;;;;;;;;;6169846;23;20022;-81
2022/06/20 09:15:35;;;;;;;8.18;1.98;;;;;;;;;;6169921;23;20034;-82
2022/06/20 09:18:21;;;;;;;5.47;1.67;;;;;;;;;;6144522;23;20053;-81
2022/06/20 09:20:48;;;;;;;7.78;2.22;;;;;;;;;;6169449;23;20105;-81
2022/06/20 09:23:34;;;;;;;5.90;1.70;;;;;;;;;;6169633;23;20673;-81
2022/06/20 09:26:19;;;;;;;6.43;1.75;;;;;;;;;;6170546;23;20041;-81
2022/06/20 09:29:06;;;;;;;7.00;2.10;;;;;;;;;;6171892;23;20105;-81
2022/06/20 09:31:40;;;;;;;7.78;1.85;;;;;;;;;;6112055;23;20042;-81
2022/06/20 09:34:20;;;;;;;6.78;1.90;;;;;;;;;;6171107;23;20041;-81
2022/06/20 09:36:48;;;;;;;8.23;1.92;;;;;;;;;;6145283;23;20017;-82
2022/06/20 09:39:15;;;;;;;4.80;1.50;;;;;;;;;;6171671;23;20037;-81
2022/06/20 09:42:01;;;;;;;6.53;1.40;;;;;;;;;;6171078;23;20815;-81
2022/06/20 09:44:36;;;;;;;7.70;1.70;;;;;;;;;;6143841;23;20029;-83
2022/06/20 09:47:11;;;;;;;5.07;1.55;;;;;;;;;;6147154;23;20034;-81
2022/06/20 09:49:57;;;;;;;5.50;1.50;;;;;;;;;;6168642;23;20117;-81
2022/06/20 09:52:43;;;;;;;3.58;1.35;;;;;;;;;;6167418;23;20502;-81
2022/06/20 09:55:34;;;;;;;6.53;1.17;;;;;;;;;;6166993;23;20033;-82
2022/06/20 09:58:22;;;;;;;2.58;1.15;;;;;;;;;;6143206;23;20057;-81
2022/06/20 10:00:52;;;;;;;4.18;1.50;;;;;;;;;;6168624;23;20875;-81
2022/06/20 10:03:32;;;;;;;7.07;1.50;;;;;;;;;;6169215;23;20025;-82
2022/06/20 10:06:02;;;;;;;7.45;1.42;;;;;;;;;;6167651;23;20037;-81
2022/06/20 10:08:32;;;;;;;4.15;1.30;;;;;;;;;;6142104;23;20085;-81
2022/06/20 10:11:06;;;;;;;5.75;1.50;;;;;;;;;;6142418;23;20758;-81
2022/06/20 10:13:41;;;;;;;6.53;1.73;;;;;;;;;;6168332;23;20022;-82
2022/06/20 10:16:19;;;;;;;5.50;1.60;;;;;;;;;;6168163;23;20030;-81
2022/06/20 10:18:50;;;;;;;3.95;1.40;;;;;;;;;;6169616;23;20862;-81
2022/06/20 10:21:26;;;;;;;6.72;1.70;;;;;;;;;;6169128;23;20843;-82
2022/06/20 10:24:14;;;;;;;7.10;1.83;;;;;;;;;;6169283;23;20112;-81
2022/06/20 10:26:41;;;;;;;7.93;1.90;;;;;;;;;;6168722;23;20097;-81
2022/06/20 10:29:20;;;;;;;7.10;1.55;;;;;;;;;;6168315;23;20460;-81
2022/06/20 10:31:56;;;;;;;8.20;2.03;;;;;;;;;;6170256;23;20054;-81
2022/06/20 10:34:30;;;;;;;6.03;1.70;;;;;;;;;;6145102;23;20025;-82
2022/06/20 10:36:57;;;;;;;8.90;2.05;;;;;;;;;;6169904;23;20053;-81
2022/06/20 10:39:33;;;;;;;5.88;1.75;;;;;;;;;;6143640;23;20025;-81
2022/06/20 10:42:19;;;;;;;5.30;1.70;;;;;;;;;;6170548;23;20006;-81
2022/06/20 10:45:03;;;;;;;8.15;2.00;;;;;;;;;;6168876;23;20026;-81
2022/06/20 10:47:42;;;;;;;5.22;1.55;;;;;;;;;;6170691;23;20022;-81
2022/06/20 10:50:12;;;;;;;7.97;2.13;;;;;;;;;;6170872;23;20064;-82
2022/06/20 10:53:05;;;;;;;9.75;2.50;;;;;;;;;;6171678;23;20039;-82
2022/06/20 10:55:37;;;;;;;7.90;1.98;;;;;;;;;;6166788;23;20018;-81
2022/06/20 10:58:07;;;;;;;6.20;1.70;;;;;;;;;;6172353;23;20022;-81
2022/06/20 11:00:39;;;;;;;7.18;1.75;;;;;;;;;;6173230;23;20053;-81
2022/06/20 11:03:25;;;;;;;6.65;1.52;;;;;;;;;;6171920;23;20014;-81
2022/06/20 11:05:53;;;;;;;7.30;1.95;;;;;;;;;;6171976;23;20021;-81
2022/06/20 11:08:41;;;;;;;7.53;1.83;;;;;;;;;;6172313;23;20748;-81
2022/06/20 11:11:13;;;;;;;10.02;2.15;;;;;;;;;;6172260;23;20022;-82
2022/06/20 11:13:49;;;;;;;7.88;1.52;;;;;;;;;;6174138;23;20118;-81
2022/06/20 11:16:30;;;;;;;8.63;1.92;;;;;;;;;;6148086;23;20114;-81
2022/06/20 11:18:58;;;;;;;10.07;2.42;;;;;;;;;;6148698;23;20025;-81
2022/06/20 11:21:32;;;;;;;7.63;2.13;;;;;;;;;;6172443;23;20814;-81
2022/06/20 11:23:59;;;;;;;5.72;1.80;;;;;;;;;;6170056;23;20026;-81
2022/06/20 11:26:33;;;;;;;6.97;1.70;;;;;;;;;;6172922;23;20022;-82
2022/06/20 11:29:19;;;;;;;7.60;1.95;;;;;;;;;;6146851;23;20409;-81
2022/06/20 11:31:57;;;;;;;6.55;1.65;;;;;;;;;;6172190;23;20018;-82
2022/06/20 11:34:30;;;;;;;7.90;1.88;;;;;;;;;;6173795;23;20030;-81
2022/06/20 11:37:06;;;;;;;14.65;1.88;;;;;;;;;;6172520;23;20030;-81
2022/06/20 11:39:43;;;;;;;7.25;2.08;;;;;;;;;;6172666;23;20328;-81
2022/06/20 11:42:10;;;;;;;10.32;2.00;;;;;;;;;;6146743;23;20018;-81
2022/06/20 11:44:45;;;;;;;8.40;2.22;;;;;;;;;;6146990;23;20010;-81
2022/06/20 11:47:29;;;;;;;8.00;1.95;;;;;;;;;;6174494;23;20051;-82
2022/06/20 11:50:33;;;;;;;8.18;1.80;;;;;;;;;;6148620;23;20058;-82
2022/06/20 11:53:08;;;;;;;6.85;1.60;;;;;;;;;;6041592;23;20028;-83
2022/06/20 11:55:47;;;;;;;10.05;1.95;;;;;;;;;;6066636;23;20019;-83
2022/06/20 11:58:36;;;;;;;6.63;1.63;;;;;;;;;;6067431;23;20052;-84
2022/06/20 12:01:14;;;;;;;7.35;1.90;;;;;;;;;;6066350;23;20012;-82
2022/06/20 12:03:49;;;;;;;8.57;1.88;;;;;;;;;;6065501;23;20023;-82
2022/06/20 12:06:32;;;;;;;9.65;2.42;;;;;;;;;;6057897;23;20027;-81
2022/06/20 12:09:04;;;;;;;12.82;2.35;;;;;;;;;;6054382;23;20031;-81
2022/06/20 12:11:31;;;;;;;9.07;2.25;;;;;;;;;;6054075;23;20067;-81
2022/06/20 12:13:59;;;;;;;10.10;2.10;;;;;;;;;;6052634;23;20072;-82
2022/06/20 12:16:33;;;;;;;12.07;2.60;;;;;;;;;;6052420;23;20012;-82
2022/06/20 12:24:47;;;;;;;6.07;1.75;;;;;;;;;;6052789;23;20154;-81
2022/06/20 12:27:16;;;;;;;7.03;2.05;;;;;;;;;;6053646;23;20041;-81
2022/06/20 12:29:44;;;;;;;10.60;2.20;;;;;;;;;;6167799;23;20033;-81
2022/06/20 12:32:14;;;;;;;8.68;2.40;;;;;;;;;;6147129;23;20014;-81
2022/06/20 12:34:51;;;;;;;9.57;2.20;;;;;;;;;;6173629;23;20026;-82
2022/06/20 12:37:23;;;;;;;11.27;2.13;;;;;;;;;;6173257;23;20018;-82
2022/06/20 12:39:50;;;;;;;;;;;;;;;;;;6147174;23;20029;-81
2022/06/20 12:42:24;;;;;;;7.07;1.90;;;;;;;;;;6144856;23;43426;-81
2022/06/20 12:45:06;;;;;;;7.57;2.03;;;;;;;;;;6173123;23;20021;-82
2022/06/20 12:47:51;;;;;;;7.10;2.00;;;;;;;;;;6145738;23;20038;-83
2022/06/20 12:50:18;;;;;;;9.43;2.60;;;;;;;;;;6146692;23;20831;-80
2022/06/20 12:53:01;;;;;;;8.32;2.00;;;;;;;;;;6147392;23;20022;-81
2022/06/20 12:55:28;;;;;;;10.40;2.30;;;;;;;;;;6172168;23;20021;-82
2022/06/20 12:58:14;;;;;;;14.02;2.38;;;;;;;;;;6151253;23;20014;-82
2022/06/20 13:00:52;;;;;;;8.48;2.38;;;;;;;;;;6147880;23;20067;-81
2022/06/20 13:03:24;;;;;;;9.38;2.53;;;;;;;;;;6147642;23;20109;-82
2022/06/20 13:06:19;;;;;;;12.75;2.40;;;;;;;;;;6172111;23;20021;-82
2022/06/20 13:08:52;;;;;;;10.75;2.28;;;;;;;;;;6146420;23;20081;-80
2022/06/20 13:11:34;;;;;;;11.43;2.20;;;;;;;;;;6147505;23;20079;-83
2022/06/20 13:14:06;;;;;;;7.00;1.90;;;;;;;;;;6174810;23;20052;-83
2022/06/20 13:16:44;;;;;;;8.02;2.13;;;;;;;;;;6173433;23;20813;-81
2022/06/20 13:19:31;;;;;;;9.07;2.17;;;;;;;;;;6174493;23;20018;-82
2022/06/20 13:22:18;;;;;;;11.02;2.38;;;;;;;;;;6173190;23;20042;-84
2022/06/20 13:24:58;;;;;;;13.07;2.85;;;;;;;;;;6153011;23;20056;-82
2022/06/20 13:27:47;;;;;;;12.27;2.58;;;;;;;;;;6175053;23;20028;-82
2022/06/20 13:30:19;;;;;;;9.70;1.92;;;;;;;;;;6146979;23;20022;-80
2022/06/20 13:32:46;;;;;;;10.98;1.83;;;;;;;;;;6174397;23;20026;-82
2022/06/20 13:35:16;;;;;;;10.50;2.30;;;;;;;;;;6147537;23;20054;-82
2022/06/20 13:38:10;;;;;;;8.18;2.25;;;;;;;;;;6173580;23;20011;-83
2022/06/20 13:40:56;;;;;;;5.95;1.98;;;;;;;;;;6174596;23;20025;-83
2022/06/20 13:43:42;;;;;;;8.70;2.85;;;;;;;;;;6149010;23;20026;-82
2022/06/20 13:46:12;;;;;;;9.63;2.35;;;;;;;;;;6147449;23;20018;-82
2022/06/20 13:48:59;;;;;;;5.47;1.80;;;;;;;;;;6173556;23;20034;-82
2022/06/20 13:51:51;;;;;;;5.78;2.00;;;;;;;;;;6152529;23;20066;-83
2022/06/20 13:54:39;;;;;;;7.25;1.90;;;;;;;;;;6174850;23;20014;-82
2022/06/20 13:57:22;;;;;;;8.23;1.80;;;;;;;;;;6147916;23;20018;-82
2022/06/20 13:59:56;;;;;;;9.68;1.73;;;;;;;;;;6172606;23;20077;-82
2022/06/20 14:02:29;;;;;;;4.93;1.83;;;;;;;;;;6147566;23;20022;-83
2022/06/20 14:04:56;;;;;;;;;;;;;;;;;;6173501;23;20057;-80
2022/06/20 14:07:32;;;;;;;4.15;1.80;;;;;;;;;;6147450;23;41894;-82
2022/06/20 14:10:00;;;;;;;7.35;1.98;;;;;;;;;;6174914;23;20065;-82
2022/06/20 14:12:41;;;;;;;9.18;1.80;;;;;;;;;;6174162;23;20066;-82
2022/06/20 14:15:17;;;;;;;10.95;2.20;;;;;;;;;;6174797;23;20018;-81
2022/06/20 14:17:51;;;;;;;4.07;1.70;;;;;;;;;;6150233;23;20029;-82
2022/06/20 14:20:21;;;;;;;4.97;1.80;;;;;;;;;;6174698;23;20025;-84
2022/06/20 14:22:49;;;;;;;4.25;1.58;;;;;;;;;;6174250;23;20042;-82
2022/06/20 14:25:36;;;;;;;5.88;1.48;;;;;;;;;;6175154;23;20014;-81
2022/06/20 14:28:04;;;;;;;9.00;1.80;;;;;;;;;;6174357;23;20038;-81
2022/06/20 14:30:34;;;;;;;5.78;2.42;;;;;;;;;;6148063;23;20081;-81
2022/06/20 14:33:20;;;;;;;4.22;1.67;;;;;;;;;;6173971;23;20106;-81
2022/06/20 14:35:51;;;;;;;8.73;1.67;;;;;;;;;;6148281;23;20018;-81
2022/06/20 14:38:30;;;;;;;10.60;1.98;;;;;;;;;;6173446;23;20017;-81
2022/06/20 14:41:05;;;;;;;6.75;1.98;;;;;;;;;;6173047;23;20878;-80
2022/06/20 14:43:40;;;;;;;4.97;1.60;;;;;;;;;;6174323;23;20029;-81
2022/06/20 14:46:26;;;;;;;5.03;1.55;;;;;;;;;;6174882;23;20014;-81
2022/06/20 14:48:58;;;;;;;4.28;1.70;;;;;;;;;;6145569;23;20160;-81
2022/06/20 14:51:51;;;;;;;19.17;2.03;;;;;;;;;;6145708;23;20025;-80
2022/06/20 14:54:25;;;;;;;7.82;2.00;;;;;;;;;;6142491;23;20791;-81
2022/06/20 14:57:01;;;;;;;10.93;1.70;;;;;;;;;;6172607;23;20029;-81
2022/06/20 14:59:34;;;;;;;7.10;1.98;;;;;;;;;;6172340;23;20061;-81
2022/06/20 15:02:06;;;;;;;7.25;1.52;;;;;;;;;;6172140;23;20791;-81
2022/06/20 15:04:42;;;;;;;3.88;1.40;;;;;;;;;;6171542;23;20010;-80
2022/06/20 15:07:15;;;;;;;5.25;1.60;;;;;;;;;;6145013;23;20037;-80
2022/06/20 15:09:45;;;;;;;5.22;1.70;;;;;;;;;;6166558;23;20779;-80
2022/06/20 15:12:25;;;;;;;4.88;1.50;;;;;;;;;;6144641;23;20026;-79
2022/06/20 15:15:16;;;;;;;8.23;1.85;;;;;;;;;;6163396;23;20050;-80
2022/06/20 15:17:58;;;;;;;7.38;1.83;;;;;;;;;;6139524;23;20014;-81
2022/06/20 15:20:37;;;;;;;7.55;1.60;;;;;;;;;;6166436;23;20679;-80
2022/06/20 15:23:04;;;;;;;8.90;1.58;;;;;;;;;;6142559;23;20022;-81
2022/06/20 15:25:38;;;;;;;9.55;1.80;;;;;;;;;;6140202;23;20022;-81
2022/06/20 15:28:12;;;;;;;4.60;1.60;;;;;;;;;;6165552;23;20063;-81
2022/06/20 15:30:49;;;;;;;5.25;1.80;;;;;;;;;;6138528;23;20801;-80
2022/06/20 15:33:26;;;;;;;7.88;2.00;;;;;;;;;;6136944;23;20021;-81
2022/06/20 15:36:13;;;;;;;6.95;2.13;;;;;;;;;;6162520;23;20030;-80